createdAt,value
2018-02-12T00:00:33.758Z,4.35
2018-02-12T00:03:02.119Z,3.10
2018-02-12T00:05:30.423Z,4.35
2018-02-12T00:07:59.487Z,4.70
2018-02-12T00:10:27.828Z,3.45
2018-02-12T00:12:56.135Z,3.10
2018-02-12T00:15:24.454Z,3.80
2018-02-12T00:17:52.823Z,3.08
2018-02-12T00:20:21.904Z,3.30
2018-02-12T00:22:50.207Z,3.05
2018-02-12T00:25:18.546Z,3.03
2018-02-12T00:27:46.863Z,3.20
2018-02-12T00:30:15.162Z,3.62
2018-02-12T00:32:43.611Z,3.35
2018-02-12T00:35:11.923Z,3.22
2018-02-12T00:37:40.219Z,3.33
2018-02-12T00:40:08.580Z,3.53
2018-02-12T00:42:36.891Z,4.77
2018-02-12T00:45:05.211Z,3.58
2018-02-12T00:47:33.567Z,3.50
2018-02-12T00:50:02.308Z,4.05
2018-02-12T00:52:30.609Z,4.90
2018-02-12T00:54:59.801Z,3.08
2018-02-12T00:57:28.111Z,2.92
2018-02-12T00:59:57.192Z,2.78
2018-02-12T01:02:25.523Z,2.10
2018-02-12T01:04:53.824Z,2.67
2018-02-12T01:07:22.192Z,2.03
2018-02-12T01:09:50.495Z,2.00
2018-02-12T01:12:18.804Z,2.50
2018-02-12T01:14:47.915Z,2.50
2018-02-12T01:17:16.228Z,1.90
2018-02-12T01:19:44.538Z,1.80
2018-02-12T01:22:12.899Z,1.62
2018-02-12T01:24:41.203Z,1.73
2018-02-12T01:27:10.271Z,1.70
2018-02-12T01:29:38.639Z,2.22
2018-02-12T01:32:07.448Z,1.93
2018-02-12T01:34:35.771Z,1.60
2018-02-12T01:37:04.102Z,2.13
2018-02-12T01:39:32.419Z,1.60
2018-02-12T01:42:00.727Z,2.13
2018-02-12T01:44:29.539Z,1.60
2018-02-12T01:46:57.839Z,1.97
2018-02-12T01:49:26.163Z,2.17
2018-02-12T01:51:54.511Z,1.30
2018-02-12T01:54:23.571Z,1.87
2018-02-12T01:56:51.879Z,2.53
2018-02-12T01:59:20.264Z,3.70
2018-02-12T02:01:48.579Z,2.07
2018-02-12T02:04:16.955Z,2.50
2018-02-12T02:06:45.306Z,1.80
2018-02-12T02:09:13.635Z,2.58
2018-02-12T02:11:41.953Z,2.40
2018-02-12T02:14:10.323Z,3.00
2018-02-12T02:16:38.643Z,2.00
2018-02-12T02:19:06.943Z,1.97
2018-02-12T02:21:35.308Z,2.37
2018-02-12T02:24:04.323Z,2.60
2018-02-12T02:26:32.626Z,4.90
2018-02-12T02:29:01.759Z,2.97
2018-02-12T02:31:30.157Z,2.90
2018-02-12T02:33:59.261Z,3.13
2018-02-12T02:36:27.731Z,2.90
2018-02-12T02:38:56.404Z,2.30
2018-02-12T02:41:24.713Z,3.70
2018-02-12T02:43:53.344Z,2.10
2018-02-12T02:46:21.651Z,2.90
2018-02-12T02:48:49.955Z,2.75
2018-02-12T02:51:18.307Z,3.17
2018-02-12T02:53:46.629Z,2.78
2018-02-12T02:56:14.996Z,2.20
2018-02-12T02:58:43.355Z,2.97
2018-02-12T03:01:11.945Z,2.90
2018-02-12T03:03:41.306Z,2.50
2018-02-12T03:06:10.112Z,2.73
2018-02-12T03:08:38.721Z,2.80
2018-02-12T03:11:07.378Z,3.60
2018-02-12T03:13:36.077Z,3.62
2018-02-12T03:16:04.615Z,3.23
2018-02-12T03:18:39.236Z,4.18
2018-02-12T03:21:07.798Z,3.23
2018-02-12T03:23:36.111Z,4.12
2018-02-12T03:26:04.467Z,2.63
2018-02-12T03:28:32.771Z,3.00
2018-02-12T03:31:01.768Z,3.80
2018-02-12T03:33:30.099Z,4.30
2018-02-12T03:35:58.401Z,3.73
2018-02-12T03:38:26.708Z,3.50
2018-02-12T03:40:55.081Z,4.87
2018-02-12T03:43:23.384Z,2.87
2018-02-12T03:45:52.668Z,2.90
2018-02-12T03:48:21.213Z,2.83
2018-02-12T03:50:49.534Z,2.80
2018-02-12T03:53:17.849Z,3.30
2018-02-12T03:55:46.401Z,2.97
2018-02-12T03:58:14.707Z,2.55
2018-02-12T04:00:43.052Z,2.90
2018-02-12T04:03:11.460Z,2.75
2018-02-12T04:05:40.528Z,2.30
2018-02-12T04:08:08.834Z,2.75
2018-02-12T04:10:37.595Z,4.13
2018-02-12T04:13:05.899Z,2.47
2018-02-12T04:15:34.301Z,2.55
2018-02-12T04:18:02.674Z,2.70
2018-02-12T04:20:31.751Z,2.28
2018-02-12T04:23:00.285Z,2.30
2018-02-12T04:25:28.823Z,2.17
2018-02-12T04:27:57.140Z,2.67
2018-02-12T04:30:25.445Z,1.73
2018-02-12T04:32:53.952Z,2.30
2018-02-12T04:35:23.036Z,2.50
2018-02-12T04:37:51.495Z,2.23
2018-02-12T04:40:20.488Z,2.73
2018-02-12T04:42:48.795Z,2.08
2018-02-12T04:45:17.108Z,1.83
2018-02-12T04:47:45.463Z,2.00
2018-02-12T04:50:14.540Z,2.20
2018-02-12T04:52:42.844Z,2.30
2018-02-12T04:55:11.981Z,1.90
2018-02-12T04:57:40.296Z,2.60
2018-02-12T05:00:08.611Z,1.90
2018-02-12T05:02:37.023Z,1.93
2018-02-12T05:05:05.345Z,2.93
2018-02-12T05:07:33.643Z,3.20
2018-02-12T05:10:02.008Z,2.67
2018-02-12T05:12:30.315Z,2.25
2018-02-12T05:14:58.629Z,2.50
2018-02-12T05:17:27.004Z,2.53
2018-02-12T05:19:55.307Z,3.05
2018-02-12T05:22:24.259Z,1.95
2018-02-12T05:24:53.671Z,2.00
2018-02-12T05:27:21.975Z,2.73
2018-02-12T05:29:50.276Z,2.10
2018-02-12T05:32:18.618Z,1.85
2018-02-12T05:34:46.940Z,2.50
2018-02-12T05:37:15.247Z,3.00
2018-02-12T05:39:43.630Z,2.13
2018-02-12T05:42:11.982Z,3.00
2018-02-12T05:44:40.335Z,2.90
2018-02-12T05:47:09.496Z,2.78
2018-02-12T05:49:37.804Z,2.83
2018-02-12T05:52:06.207Z,2.60
2018-02-12T05:54:34.543Z,2.67
2018-02-12T05:57:02.852Z,2.37
2018-02-12T05:59:31.224Z,2.90
2018-02-12T06:02:00.299Z,2.80
2018-02-12T06:04:28.611Z,2.08
2018-02-12T06:06:56.995Z,1.95
2018-02-12T06:09:25.352Z,3.58
2018-02-12T06:11:54.439Z,2.33
2018-02-12T06:14:23.551Z,3.00
2018-02-12T06:16:52.619Z,2.83
2018-02-12T06:19:20.932Z,2.30
2018-02-12T06:21:49.285Z,2.15
2018-02-12T06:24:17.598Z,2.12
2018-02-12T06:26:45.912Z,2.08
2018-02-12T06:29:14.266Z,2.00
2018-02-12T06:31:42.571Z,1.77
2018-02-12T06:34:10.876Z,1.55
2018-02-12T06:36:39.208Z,2.40
2018-02-12T06:39:07.511Z,2.20
2018-02-12T06:41:35.851Z,2.10
2018-02-12T06:44:04.387Z,2.60
2018-02-12T06:46:32.691Z,2.05
2018-02-12T06:49:01.013Z,2.25
2018-02-12T06:51:29.368Z,2.00
2018-02-12T06:53:57.783Z,2.15
2018-02-12T06:56:26.147Z,3.60
2018-02-12T06:58:54.455Z,2.28
2018-02-12T07:01:22.825Z,2.53
2018-02-12T07:03:51.168Z,2.50
2018-02-12T07:06:19.488Z,2.92
2018-02-12T07:08:47.803Z,2.80
2018-02-12T07:11:16.144Z,2.70
2018-02-12T07:13:44.461Z,2.20
2018-02-12T07:16:12.784Z,2.60
2018-02-12T07:18:41.133Z,2.60
2018-02-12T07:21:09.432Z,1.73
2018-02-12T07:23:37.755Z,2.50
2018-02-12T07:26:06.859Z,2.60
2018-02-12T07:28:35.171Z,2.53
2018-02-12T07:31:03.487Z,3.47
2018-02-12T07:33:31.886Z,2.70
2018-02-12T07:36:00.204Z,2.40
2018-02-12T07:38:28.516Z,2.72
2018-02-12T07:40:56.912Z,2.50
2018-02-12T07:43:25.227Z,2.78
2018-02-12T07:45:53.531Z,2.85
2018-02-12T07:48:21.974Z,2.55
2018-02-12T07:50:50.284Z,2.50
2018-02-12T07:53:18.596Z,3.00
2018-02-12T07:55:46.948Z,2.33
2018-02-12T07:58:15.251Z,2.37
2018-02-12T08:00:44.320Z,2.27
2018-02-12T08:03:12.656Z,2.70
2018-02-12T08:05:40.971Z,3.47
2018-02-12T08:08:09.281Z,3.27
2018-02-12T08:10:37.632Z,2.97
2018-02-12T08:13:05.922Z,3.37
2018-02-12T08:15:34.992Z,3.67
2018-02-12T08:18:04.131Z,3.77
2018-02-12T08:20:32.438Z,3.97
2018-02-12T08:23:00.748Z,3.12
2018-02-12T08:25:29.098Z,3.50
2018-02-12T08:27:57.408Z,3.47
2018-02-12T08:30:25.711Z,4.47
2018-02-12T08:32:54.156Z,3.33
2018-02-12T08:35:22.455Z,2.77
2018-02-12T08:37:50.747Z,2.93
2018-02-12T08:40:19.082Z,3.20
2018-02-12T08:42:47.388Z,2.33
2018-02-12T08:45:15.688Z,2.50
2018-02-12T08:47:44.053Z,3.20
2018-02-12T08:50:13.120Z,1.83
2018-02-12T08:52:41.424Z,1.70
2018-02-12T08:55:10.563Z,2.20
2018-02-12T08:57:38.868Z,1.85
2018-02-12T09:00:07.166Z,2.53
2018-02-12T09:02:35.529Z,2.10
2018-02-12T09:05:03.836Z,2.60
2018-02-12T09:07:32.159Z,2.30
2018-02-12T09:10:00.624Z,2.22
2018-02-12T09:12:28.983Z,2.17
2018-02-12T09:14:57.299Z,2.20
2018-02-12T09:17:25.665Z,2.55
2018-02-12T09:19:53.971Z,1.63
2018-02-12T09:22:22.284Z,2.20
2018-02-12T09:24:50.727Z,2.20
2018-02-12T09:27:19.032Z,2.40
2018-02-12T09:29:47.340Z,1.60
2018-02-12T09:32:15.684Z,2.00
2018-02-12T09:34:43.978Z,1.60
2018-02-12T09:37:13.075Z,2.00
2018-02-12T09:39:41.640Z,1.77
2018-02-12T09:42:09.958Z,2.47
2018-02-12T09:44:38.258Z,1.60
2018-02-12T09:47:06.603Z,2.10
2018-02-12T09:49:34.908Z,1.70
2018-02-12T09:52:03.215Z,2.10
2018-02-12T09:54:31.571Z,1.90
2018-02-12T09:56:59.887Z,2.90
2018-02-12T09:59:28.960Z,2.10
2018-02-12T10:01:57.683Z,1.70
2018-02-12T10:04:25.978Z,1.90
2018-02-12T10:06:54.295Z,1.93
2018-02-12T10:09:22.620Z,1.63
2018-02-12T10:11:50.931Z,1.80
2018-02-12T10:14:20.208Z,2.10
2018-02-12T10:16:48.508Z,1.93
2018-02-12T10:19:16.827Z,2.23
2018-02-12T10:21:45.957Z,1.87
2018-02-12T10:24:14.263Z,1.53
2018-02-12T10:26:42.577Z,2.70
2018-02-12T10:29:10.908Z,2.03
2018-02-12T10:31:39.217Z,1.60
2018-02-12T10:34:07.519Z,1.67
2018-02-12T10:36:36.627Z,1.40
2018-02-12T10:39:04.926Z,1.00
2018-02-12T10:41:33.223Z,1.47
2018-02-12T10:44:01.552Z,1.83
2018-02-12T10:46:29.862Z,1.60
2018-02-12T10:48:58.228Z,1.90
2018-02-12T10:51:26.543Z,1.47
2018-02-12T10:53:54.866Z,1.70
2018-02-12T10:56:23.212Z,1.10
2018-02-12T10:58:51.519Z,1.13
2018-02-12T11:01:19.829Z,2.33
2018-02-12T11:03:48.177Z,1.77
2018-02-12T11:06:16.476Z,2.10
2018-02-12T11:08:44.784Z,1.30
2018-02-12T11:11:13.173Z,3.73
2018-02-12T11:13:41.479Z,3.37
2018-02-12T11:16:09.794Z,1.63
2018-02-12T11:18:38.439Z,1.53
2018-02-12T11:21:06.768Z,1.37
2018-02-12T11:23:35.073Z,2.37
2018-02-12T11:26:03.796Z,1.50
2018-02-12T11:28:32.096Z,1.63
2018-02-12T11:31:00.405Z,2.00
2018-02-12T11:33:28.776Z,1.70
2018-02-12T11:35:57.088Z,2.10
2018-02-12T11:38:26.160Z,2.23
2018-02-12T11:40:54.520Z,1.43
2018-02-12T11:43:22.838Z,1.70
2018-02-12T11:45:51.150Z,2.07
2018-02-12T11:48:19.659Z,1.30
2018-02-12T11:50:47.979Z,1.80
2018-02-12T11:53:16.289Z,1.90
2018-02-12T11:55:44.648Z,2.00
2018-02-12T11:58:12.952Z,1.60
2018-02-12T12:00:41.249Z,1.60
2018-02-12T12:03:09.963Z,2.07
2018-02-12T12:05:38.263Z,1.90
2018-02-12T12:08:07.342Z,1.70
2018-02-12T12:10:36.467Z,1.67
2018-02-12T12:13:04.840Z,1.37
2018-02-12T12:15:33.139Z,1.87
2018-02-12T12:18:01.491Z,4.30
2018-02-12T12:20:29.800Z,1.23
2018-02-12T12:22:58.096Z,1.30
2018-02-12T12:25:26.468Z,1.37
2018-02-12T12:27:54.776Z,1.33
2018-02-12T12:30:23.080Z,1.47
2018-02-12T12:32:51.431Z,1.47
2018-02-12T12:35:19.727Z,1.30
2018-02-12T12:37:48.036Z,2.03
2018-02-12T12:40:16.698Z,1.50
2018-02-12T12:42:45.016Z,1.70
2018-02-12T12:45:13.316Z,1.37
2018-02-12T12:47:41.651Z,1.00
2018-02-12T12:50:09.956Z,1.47
2018-02-12T12:52:38.267Z,1.93
2018-02-12T12:55:06.638Z,1.30
2018-02-12T12:57:35.708Z,1.30
2018-02-12T13:00:04.007Z,1.40
2018-02-12T13:02:32.365Z,1.70
2018-02-12T13:05:00.676Z,1.40
2018-02-12T13:07:28.976Z,1.10
2018-02-12T13:09:57.342Z,1.23
2018-02-12T13:12:25.655Z,1.60
2018-02-12T13:14:53.967Z,1.90
2018-02-12T13:17:22.321Z,1.80
2018-02-12T13:19:50.627Z,1.63
2018-02-12T13:22:18.932Z,1.63
2018-02-12T13:24:47.288Z,1.77
2018-02-12T13:27:15.609Z,2.07
2018-02-12T13:29:43.911Z,2.17
2018-02-12T13:32:12.263Z,2.30
2018-02-12T13:34:40.560Z,2.00
2018-02-12T13:37:08.859Z,1.60
2018-02-12T13:39:37.221Z,2.50
2018-02-12T13:42:05.554Z,2.20
2018-02-12T13:44:33.872Z,2.20
2018-02-12T13:47:02.260Z,3.00
2018-02-12T13:49:30.562Z,2.00
2018-02-12T13:51:59.636Z,2.27
2018-02-12T13:54:27.985Z,1.90
2018-02-12T13:56:56.303Z,4.90
2018-02-12T13:59:24.607Z,1.80
2018-02-12T14:01:53.035Z,1.47
2018-02-12T14:04:21.331Z,2.00
2018-02-12T14:06:49.632Z,1.73
2018-02-12T14:09:18.056Z,1.30
2018-02-12T14:11:48.108Z,1.70
2018-02-12T14:14:16.425Z,1.80
2018-02-12T14:16:45.426Z,1.80
2018-02-12T14:19:13.735Z,1.90
2018-02-12T14:21:42.027Z,2.63
2018-02-12T14:24:10.486Z,2.73
2018-02-12T14:26:38.776Z,3.60
2018-02-12T14:29:07.084Z,3.23
2018-02-12T14:31:36.203Z,6.60
2018-02-12T14:34:04.504Z,5.70
2018-02-12T14:36:33.040Z,6.60
2018-02-12T14:39:01.424Z,7.53
2018-02-12T14:41:30.507Z,4.87
2018-02-12T14:43:58.831Z,3.70
2018-02-12T14:46:27.190Z,5.78
2018-02-12T14:48:55.501Z,3.37
2018-02-12T14:51:23.807Z,3.57
2018-02-12T14:53:52.162Z,2.67
2018-02-12T14:56:20.520Z,2.77
2018-02-12T14:58:48.799Z,2.07
2018-02-12T15:01:17.140Z,3.17
2018-02-12T15:03:46.205Z,2.63
2018-02-12T15:06:14.519Z,2.70
2018-02-12T15:08:42.883Z,3.28
2018-02-12T15:11:11.231Z,4.15
2018-02-12T15:13:39.528Z,3.17
2018-02-12T15:16:08.440Z,3.78
2018-02-12T15:18:37.508Z,4.40
2018-02-12T15:21:05.820Z,3.78
2018-02-12T15:23:34.935Z,2.80
2018-02-12T15:26:03.240Z,3.70
2018-02-12T15:28:31.547Z,4.10
2018-02-12T15:30:59.948Z,5.37
2018-02-12T15:33:28.618Z,4.95
2018-02-12T15:35:56.938Z,6.07
2018-02-12T15:38:25.307Z,5.28
2018-02-12T15:40:53.603Z,4.63
2018-02-12T15:43:21.918Z,5.03
2018-02-12T15:45:50.255Z,4.30
2018-02-12T15:48:18.579Z,4.43
2018-02-12T15:50:46.930Z,5.03
2018-02-12T15:53:15.280Z,5.80
2018-02-12T15:55:43.584Z,3.63
2018-02-12T15:58:11.891Z,4.60
2018-02-12T16:00:40.268Z,3.72
2018-02-12T16:03:08.599Z,4.22
2018-02-12T16:05:36.912Z,2.60
2018-02-12T16:08:05.278Z,2.87
2018-02-12T16:10:33.583Z,3.20
2018-02-12T16:13:02.672Z,3.23
2018-02-12T16:15:31.861Z,2.45
2018-02-12T16:18:00.195Z,2.15
2018-02-12T16:20:28.500Z,2.35
2018-02-12T16:22:56.870Z,2.33
2018-02-12T16:25:25.177Z,2.35
2018-02-12T16:27:53.488Z,2.37
2018-02-12T16:30:21.852Z,2.55
2018-02-12T16:32:50.156Z,2.13
2018-02-12T16:35:18.459Z,1.90
2018-02-12T16:37:46.822Z,2.40
2018-02-12T16:40:15.131Z,2.40
2018-02-12T16:42:43.440Z,2.50
2018-02-12T16:45:11.806Z,3.00
2018-02-12T16:47:40.126Z,3.20
2018-02-12T16:50:08.482Z,3.10
2018-02-12T16:52:36.899Z,3.70
2018-02-12T16:55:05.195Z,3.63
2018-02-12T16:57:33.503Z,2.83
2018-02-12T17:00:02.639Z,3.67
2018-02-12T17:02:30.951Z,2.87
2018-02-12T17:04:59.269Z,2.20
2018-02-12T17:07:27.604Z,2.10
2018-02-12T17:09:55.919Z,2.50
2018-02-12T17:12:24.235Z,3.47
2018-02-12T17:14:52.582Z,2.35
2018-02-12T17:17:20.885Z,2.92
2018-02-12T17:19:49.203Z,2.90
2018-02-12T17:22:17.531Z,3.07
2018-02-12T17:24:45.848Z,2.70
2018-02-12T17:27:14.235Z,2.55
2018-02-12T17:29:42.550Z,2.07
2018-02-12T17:32:10.868Z,2.25
2018-02-12T17:34:39.312Z,2.30
2018-02-12T17:37:07.611Z,2.92
2018-02-12T17:39:35.915Z,2.10
2018-02-12T17:42:04.264Z,3.72
2018-02-12T17:44:32.576Z,1.97
2018-02-12T17:47:00.932Z,2.83
2018-02-12T17:49:29.276Z,2.62
2018-02-12T17:51:57.573Z,2.90
2018-02-12T17:54:25.947Z,3.75
2018-02-12T17:56:54.264Z,2.45
2018-02-12T17:59:22.578Z,3.50
2018-02-12T18:01:50.939Z,6.30
2018-02-12T18:04:20.020Z,3.85
2018-02-12T18:06:48.340Z,4.57
2018-02-12T18:09:16.795Z,4.47
2018-02-12T18:11:45.879Z,4.40
2018-02-12T18:14:14.187Z,3.65
2018-02-12T18:16:42.576Z,4.12
2018-02-12T18:19:10.895Z,4.47
2018-02-12T18:21:39.208Z,4.55
2018-02-12T18:24:08.440Z,3.62
2018-02-12T18:26:36.795Z,4.20
2018-02-12T18:29:05.444Z,4.75
2018-02-12T18:31:33.803Z,5.93
2018-02-12T18:34:02.125Z,5.43
2018-02-12T18:36:30.464Z,6.18
2018-02-12T18:38:58.847Z,5.75
2018-02-12T18:41:27.160Z,5.45
2018-02-12T18:43:55.500Z,6.15
2018-02-12T18:46:24.659Z,6.62
2018-02-12T18:48:53.006Z,5.25
2018-02-12T18:51:21.378Z,5.37
2018-02-12T18:53:49.904Z,5.55
2018-02-12T18:56:18.520Z,5.82
2018-02-12T18:58:46.836Z,5.95
2018-02-12T19:01:15.201Z,5.62
2018-02-12T19:03:43.526Z,5.87
2018-02-12T19:06:11.850Z,6.15
2018-02-12T19:08:40.212Z,4.65
2018-02-12T19:11:08.529Z,5.25
2018-02-12T19:13:36.872Z,6.97
2018-02-12T19:16:05.184Z,5.35
2018-02-12T19:18:33.499Z,5.22
2018-02-12T19:21:01.863Z,5.03
2018-02-12T19:23:30.172Z,5.20
2018-02-12T19:25:58.488Z,5.90
2018-02-12T19:28:27.619Z,5.47
2018-02-12T19:30:55.927Z,5.80
2018-02-12T19:33:24.247Z,5.75
2018-02-12T19:35:52.608Z,5.72
2018-02-12T19:38:21.680Z,6.53
2018-02-12T19:40:49.995Z,6.00
2018-02-12T19:43:19.120Z,5.85
2018-02-12T19:45:47.446Z,5.25
2018-02-12T19:48:15.801Z,5.72
2018-02-12T19:50:44.954Z,5.50
2018-02-12T19:53:13.272Z,5.00
2018-02-12T19:55:41.584Z,5.10
2018-02-12T19:58:09.976Z,5.03
2018-02-12T20:00:38.294Z,5.87
2018-02-12T20:03:07.073Z,4.95
2018-02-12T20:05:35.435Z,3.80
2018-02-12T20:08:04.507Z,3.90
2018-02-12T20:10:33.631Z,3.92
2018-02-12T20:13:03.035Z,4.25
2018-02-12T20:15:31.364Z,4.28
2018-02-12T20:17:59.671Z,3.60
2018-02-12T20:20:28.043Z,3.53
2018-02-12T20:22:56.356Z,4.18
2018-02-12T20:25:24.673Z,4.15
2018-02-12T20:27:53.418Z,4.25
2018-02-12T20:30:21.744Z,4.90
2018-02-12T20:32:50.137Z,6.10
2018-02-12T20:35:19.267Z,4.90
2018-02-12T20:37:47.594Z,4.15
2018-02-12T20:40:15.935Z,5.62
2018-02-12T20:42:44.299Z,4.50
2018-02-12T20:45:12.620Z,5.68
2018-02-12T20:47:40.940Z,5.30
2018-02-12T20:50:09.287Z,7.50
2018-02-12T20:52:37.607Z,6.03
2018-02-12T20:55:05.949Z,5.60
2018-02-12T20:57:34.320Z,6.22
2018-02-12T21:00:02.644Z,5.97
2018-02-12T21:02:30.972Z,7.30
2018-02-12T21:04:59.863Z,7.32
2018-02-12T21:07:28.184Z,6.62
2018-02-12T21:09:56.511Z,7.07
2018-02-12T21:12:24.868Z,8.50
2018-02-12T21:14:53.226Z,8.90
2018-02-12T21:17:21.538Z,7.85
2018-02-12T21:19:49.892Z,8.30
2018-02-12T21:22:18.216Z,5.37
2018-02-12T21:24:46.545Z,9.85
2018-02-12T21:27:14.928Z,10.00
2018-02-12T21:29:43.251Z,8.18
2018-02-12T21:32:11.591Z,9.02
2018-02-12T21:34:40.317Z,8.52
2018-02-12T21:37:09.400Z,9.77
2018-02-12T21:39:37.721Z,10.60
2018-02-12T21:42:06.109Z,10.50
2018-02-12T21:44:34.453Z,8.45
2018-02-12T21:47:03.553Z,12.07
2018-02-12T21:49:32.693Z,7.80
2018-02-12T21:52:01.013Z,7.97
2018-02-12T21:54:29.340Z,11.20
2018-02-12T21:56:57.920Z,10.02
2018-02-12T21:59:26.252Z,10.13
2018-02-12T22:01:54.572Z,7.87
2018-02-12T22:04:22.956Z,9.00
2018-02-12T22:06:51.279Z,7.65
2018-02-12T22:09:19.614Z,7.45
2018-02-12T22:11:47.975Z,7.78
2018-02-12T22:14:16.304Z,7.75
2018-02-12T22:16:44.631Z,6.72
2018-02-12T22:19:12.972Z,7.12
2018-02-12T22:21:41.296Z,5.65
2018-02-12T22:24:10.424Z,6.80
2018-02-12T22:26:38.755Z,6.72
2018-02-12T22:29:07.132Z,6.05
2018-02-12T22:31:36.218Z,6.28
2018-02-12T22:34:05.291Z,7.05
2018-02-12T22:36:33.595Z,6.18
2018-02-12T22:39:03.116Z,6.62
2018-02-12T22:41:31.424Z,6.78
2018-02-12T22:43:59.736Z,8.55
2018-02-12T22:46:28.116Z,8.60
2018-02-12T22:48:57.207Z,8.00
2018-02-12T22:51:25.515Z,7.68
2018-02-12T22:53:54.630Z,8.23
2018-02-12T22:56:22.943Z,7.78
2018-02-12T22:58:51.312Z,8.88
2018-02-12T23:01:19.651Z,7.55
2018-02-12T23:03:47.968Z,7.70
2018-02-12T23:06:16.620Z,8.68
2018-02-12T23:08:44.940Z,8.32
2018-02-12T23:11:13.255Z,9.23
2018-02-12T23:13:41.599Z,6.90
2018-02-12T23:16:09.920Z,9.55
2018-02-12T23:18:38.237Z,8.38
2018-02-12T23:21:06.623Z,10.30
2018-02-12T23:23:35.726Z,9.55
2018-02-12T23:26:04.044Z,9.23
2018-02-12T23:28:32.391Z,8.82
2018-02-12T23:31:00.699Z,9.43
2018-02-12T23:33:29.309Z,10.82
2018-02-12T23:35:57.675Z,9.15
2018-02-12T23:38:25.989Z,12.00
2018-02-12T23:40:54.307Z,11.43
2018-02-12T23:43:23.558Z,9.35
2018-02-12T23:45:51.903Z,11.20
2018-02-12T23:48:20.227Z,11.25
2018-02-12T23:50:48.605Z,9.65
2018-02-12T23:53:16.920Z,9.60
2018-02-12T23:55:46.004Z,10.35
2018-02-12T23:58:15.111Z,9.63
